Airfield :
LOGIN :

Register | Disclaimer

   EN    FR    IT 

 










Legend :    VFR   Marginal VFR   IFR   Intensive IFR   Very Intensive IFR
Visi :
Ceiling :
>= 8 km
>= 3000ft
5 to 8 km
1000 to 3000 ft
1500m to 5 km
500 to 1000 ft
800 to 1500m
200 to 500 ft
< 800m
< 200 ft
Symbols :   Thunderstorms  Fog  Heavy snow  Heavy precipitations  Wind > 20 kt
SIGMETs :     Misc.  Thunderstorms  Icing  Turbulence  Mountain Waves  Volcanic Ashes







- Airport Elevation : 13 ft
- IATA code : OST


EBOS - Oostend bruges Int.

CURRENT METAR :
  • 191620Z 29010KT 9000 -SHRA FEW009 SCT017 13/11 Q1021 TEMPO SHRA

EXPIRED METARs :
  • 191550Z 31012KT 9999 -SHRA FEW009 SCT017 14/12 Q1021 TEMPO SHRA
  • 191520Z 32012KT 9999 FEW020TCU SCT047 15/12 Q1021 TEMPO SHRA
  • 191450Z 32006KT 280V350 9999 FEW020TCU 16/10 Q1021 TEMPO SHRA
  • 191420Z 29008KT 260V320 9999 FEW020TCU 16/11 Q1021 NOSIG
  • 191350Z 30007KT 9999 FEW020 16/11 Q1020 NOSIG

TAF TAF EBOS
Valid from the 19 at 12:00 until the 20 at 18:00 UTC


191120Z 1912/2018 34010KT 9999 SCT020
PROB30
TEMPO 1912/1916 SHRA
BECMG 1922/1924 21006KT
PROB30
TEMPO 2004/2007 4000 BR
No reported NOTAMs for that airfield.



MET'MAP, your aeronautical weather chart ! - Copyright ORBIFLY December 2007 - Disclaimer

ORBIFLY MET'MAP TEAM :

Programming & Development : Alexandra Zaïnal
Concept & Development : Baudouin d'Aumeries
Co-Development & Prog : Marc-Olivier Méhu
Technical & hardware support : Manuel Goepfert

Contact : metmap@orbifly.com




SOURCES & CREDITS :

   NOAA